Archival Weather

Norman Y Mineta San Jose Intl

San Jose, California (KSJC)

Report from: Wednesday, January 31, 2024 6:53 PM PST
Current time: Monday, June 24, 2024 4:12 AM PDT

Current weather – Weather history – Daily summaries
Weather forecast

Present weatherLight rain
Temperature13.9°C (57.0°F)
Dew point9.4°C (48.9°F)
Winds 16 kts (8.2 m/s, 18.4 mph) South-Southeast (160°)
Peak wind 28 kts (14.4 m/s, 32.2 mph) Southeast (140°) at 02:24
Visibility10 mi. (16.1 km)
Clouds Ceiling: Broken clouds 7,000 ft. (2,134 m)
Altimeter29.58 in.Hg (1002 mB)
Precipitiation0.02 in. (1 mm)
Precip last 3 hours0.04 in. (1 mm)
Relative humidity74 %
Density altitude433 ft. (132 m)
Sea-level pressure100.2 kPa (1002 mB, 29.58 in.Hg)
Remarks Automated weather observing station with precipitation discriminator
Pressure falling more slowly
Flight conditions Visual Meteorological Conditions
Raw dataKSJC 010253Z 16016KT 10SM -RA BKN070 14/09 A2958 RMK AO2 PK WND 14028/0224 SLP016 P0002 60004 T01390094 56019
An error has occurred. This application may no longer respond until reloaded. Reload 🗙